Time;durP1;ratioP1;P1;durP2;ratioP2;P2;SDS_P1;SDS_P2;PMS_P1;PMS_P2;Temp;Humidity;BMP_temperature;BMP_pressure;BME280_temperature;BME280_humidity;BME280_pressure;Samples;Min_cycle;Max_cycle;Signal;HPM_P1;HPM_P2
2022/05/03 00:01:42;;;;;;;26.90;19.30;;;12.60;99.90;;;;;;5056734;28;20485;-51
2022/05/03 00:04:26;;;;;;;27.30;20.17;;;12.50;99.90;;;;;;5052805;28;20401;-51
2022/05/03 00:07:07;;;;;;;25.50;19.13;;;12.50;99.90;;;;;;5063328;28;20407;-52
2022/05/03 00:10:07;;;;;;;26.48;18.67;;;12.50;1.00;;;;;;5052599;28;20455;-51
2022/05/03 00:12:47;;;;;;;27.07;19.40;;;12.70;99.90;;;;;;5057851;28;20799;-52
2022/05/03 00:15:16;;;;;;;25.48;19.63;;;12.70;99.90;;;;;;5065932;28;20765;-51
2022/05/03 00:17:42;;;;;;;28.75;21.23;;;12.70;99.90;;;;;;5062573;28;20470;-51
2022/05/03 00:20:09;;;;;;;25.80;19.60;;;12.60;99.90;;;;;;5054013;28;20905;-51
2022/05/03 00:22:35;;;;;;;27.02;20.27;;;12.60;99.90;;;;;;5060286;28;20410;-51
2022/05/03 00:25:01;;;;;;;26.52;19.50;;;12.70;99.90;;;;;;5071333;28;20395;-52
2022/05/03 00:27:28;;;;;;;27.20;19.67;;;12.70;99.90;;;;;;5071281;28;20376;-51
2022/05/03 00:29:56;;;;;;;26.17;19.30;;;12.80;99.90;;;;;;5071725;28;20388;-51
2022/05/03 00:32:23;;;;;;;26.48;20.17;;;12.80;99.90;;;;;;5070817;28;20383;-51
2022/05/03 00:34:53;;;;;;;26.27;19.50;;;12.90;99.90;;;;;;5071310;28;20464;-51
2022/05/03 00:37:19;;;;;;;27.52;19.70;;;12.90;99.90;;;;;;5070683;28;20388;-51
2022/05/03 00:39:45;;;;;;;27.45;20.52;;;12.90;99.90;;;;;;5071463;28;20383;-52
2022/05/03 00:42:21;;;;;;;28.00;20.40;;;12.80;99.90;;;;;;5070450;28;20399;-52
2022/05/03 00:45:09;;;;;;;27.88;20.60;;;12.80;99.90;;;;;;5068448;28;20384;-51
2022/05/03 00:47:53;;;;;;;27.75;21.15;;;12.60;99.90;;;;;;5071411;28;20387;-51
2022/05/03 00:50:32;;;;;;;26.67;20.60;;;12.50;99.90;;;;;;5070569;28;20392;-51
2022/05/03 00:53:16;;;;;;;25.90;19.50;;;12.40;1.00;;;;;;5071207;28;20411;-51
2022/05/03 00:56:06;;;;;;;29.60;21.13;;;12.40;1.00;;;;;;5071454;28;20453;-52
2022/05/03 00:59:00;;;;;;;30.45;22.20;;;12.40;1.00;;;;;;5070909;28;20400;-51
2022/05/03 01:01:34;;;;;;;27.00;20.10;;;12.30;1.00;;;;;;5062161;28;20449;-51
2022/05/03 01:04:26;;;;;;;28.88;20.90;;;12.20;1.00;;;;;;5070700;28;20391;-52
2022/05/03 01:06:56;;;;;;;31.23;21.55;;;12.30;1.00;;;;;;5070953;28;20407;-52
2022/05/03 01:09:32;;;;;;;30.10;20.52;;;12.30;1.00;;;;;;5070362;28;20395;-51
2022/05/03 01:12:16;;;;;;;27.43;20.70;;;12.20;1.00;;;;;;5071055;28;20868;-52
2022/05/03 01:15:07;;;;;;;28.00;20.95;;;12.10;1.00;;;;;;5067146;28;20457;-51
2022/05/03 01:17:44;;;;;;;25.70;19.98;;;12.00;1.00;;;;;;5063878;28;20387;-51
2022/05/03 01:20:18;;;;;;;28.95;20.80;;;12.00;1.00;;;;;;5069610;28;20400;-51
2022/05/03 01:23:17;;;;;;;28.67;19.67;;;12.00;1.00;;;;;;5069989;28;20566;-51
2022/05/03 01:26:21;;;;;;;29.33;20.00;;;11.90;1.00;;;;;;5067127;28;20412;-52
2022/05/03 01:29:20;;;;;;;29.17;21.10;;;11.70;1.00;;;;;;5064239;28;20413;-51
2022/05/03 01:31:47;;;;;;;26.92;20.30;;;11.70;1.00;;;;;;5084815;28;20406;-51
2022/05/03 01:34:19;;;;;;;27.70;20.00;;;11.70;1.00;;;;;;5074494;28;20392;-52
2022/05/03 01:37:05;;;;;;;28.20;20.42;;;11.70;1.00;;;;;;5051849;28;20423;-51
2022/05/03 01:39:37;;;;;;;29.25;20.52;;;11.70;1.00;;;;;;5070355;28;20437;-51
2022/05/03 01:42:48;;;;;;;27.25;19.58;;;11.70;1.00;;;;;;5070400;28;20415;-51
2022/05/03 01:45:25;;;;;;;28.05;19.60;;;11.70;1.00;;;;;;5069221;28;20376;-51
2022/05/03 01:51:50;;;;;;;32.38;22.45;;;11.20;1.00;;;;;;5034920;28;20460;-51
2022/05/03 01:55:00;;;;;;;30.27;22.40;;;10.90;1.00;;;;;;5058771;28;20799;-51
2022/05/03 01:58:04;;;;;;;30.80;21.48;;;10.80;46.80;;;;;;4986245;28;20636;-51
2022/05/03 02:00:38;;;;;;;27.88;20.55;;;10.70;1.00;;;;;;4942038;29;20413;-51
2022/05/03 02:03:52;;;;;;;30.50;21.75;;;10.80;33.30;;;;;;4965129;28;20402;-51
2022/05/03 02:07:04;;;;;;;29.67;21.00;;;10.90;35.60;;;;;;5046422;28;20411;-51
2022/05/03 02:09:46;;;;;;;30.65;20.65;;;10.90;1.00;;;;;;5068876;28;20446;-51
2022/05/03 02:12:15;;;;;;;28.70;21.20;;;10.80;1.00;;;;;;5069340;28;20387;-51
2022/05/03 02:15:05;;;;;;;28.93;20.63;;;10.80;1.00;;;;;;5069944;28;20404;-51
2022/05/03 02:18:01;;;;;;;30.73;21.05;;;10.80;1.00;;;;;;5069077;28;20533;-51
2022/05/03 02:20:45;;;;;;;29.88;21.30;;;10.60;1.00;;;;;;5060624;28;20453;-51
2022/05/03 02:23:32;;;;;;;28.02;21.05;;;10.70;1.00;;;;;;5068479;28;20988;-51
2022/05/03 02:26:22;;;;;;;30.15;20.67;;;10.60;1.00;;;;;;5068223;28;20833;-51
2022/05/03 02:29:00;;;;;;;30.05;21.60;;;10.50;1.00;;;;;;5064163;28;20383;-51
2022/05/03 02:31:48;;;;;;;30.67;21.15;;;10.50;1.00;;;;;;5067092;28;20508;-52
2022/05/03 02:34:46;;;;;;;28.20;20.65;;;10.40;1.00;;;;;;5058335;28;20490;-51
2022/05/03 02:37:16;;;;;;;30.48;21.67;;;10.40;1.00;;;;;;5001582;28;20484;-51
2022/05/03 02:40:00;;;;;;;33.47;23.55;;;10.40;1.00;;;;;;5066365;28;20388;-51
2022/05/03 02:42:26;;;;;;;30.77;22.13;;;10.50;1.00;;;;;;5060290;28;21087;-51
2022/05/03 02:44:56;;;;;;;29.58;22.30;;;10.60;1.00;;;;;;5069652;28;20392;-51
2022/05/03 02:47:25;;;;;;;31.87;22.30;;;10.70;1.00;;;;;;5068211;28;20404;-51
2022/05/03 02:50:06;;;;;;;29.63;21.27;;;10.50;1.00;;;;;;5069503;28;20498;-51
2022/05/03 02:52:41;;;;;;;33.95;21.65;;;10.50;1.00;;;;;;5069380;28;20384;-51
2022/05/03 02:55:30;;;;;;;31.10;22.85;;;10.40;1.00;;;;;;5050374;28;20479;-51
2022/05/03 02:57:59;;;;;;;32.50;22.58;;;10.20;1.00;;;;;;5069293;28;20395;-53
2022/05/03 03:03:38;;;;;;;27.83;21.00;;;10.00;3.90;;;;;;5064225;28;20398;-51
2022/05/03 03:06:04;;;;;;;29.50;20.90;;;10.00;13.90;;;;;;5069065;28;20457;-51
2022/05/03 03:08:43;;;;;;;29.85;20.80;;;10.60;31.60;;;;;;5050243;28;20403;-51
2022/05/03 03:11:21;;;;;;;35.22;22.38;;;10.00;41.10;;;;;;5067893;28;20384;-51
2022/05/03 03:14:19;;;;;;;34.05;22.90;;;9.90;27.60;;;;;;5065716;28;20398;-53
2022/05/03 03:16:59;;;;;;;33.38;22.88;;;9.80;1.00;;;;;;5045801;28;20407;-51
2022/05/03 03:19:47;;;;;;;35.40;23.50;;;9.80;17.80;;;;;;5068470;28;20419;-53
2022/05/03 03:22:14;;;;;;;28.90;21.55;;;9.90;57.90;;;;;;5067788;28;20753;-52
2022/05/03 03:24:40;;;;;;;31.25;21.60;;;10.00;56.50;;;;;;5051158;28;20406;-49
2022/05/03 03:27:09;;;;;;;32.45;23.00;;;10.00;34.20;;;;;;5068397;28;20403;-51
2022/05/03 03:29:38;;;;;;;30.20;22.10;;;10.00;42.90;;;;;;5068570;28;20402;-51
2022/05/03 03:32:08;;;;;;;31.15;22.60;;;10.00;23.10;;;;;;5067867;28;20403;-51
2022/05/03 03:34:36;;;;;;;32.38;22.52;;;10.00;1.00;;;;;;5068856;28;20384;-51
2022/05/03 03:37:07;;;;;;;31.35;21.65;;;9.90;1.00;;;;;;5068555;28;20392;-51
2022/05/03 03:39:35;;;;;;;30.95;21.90;;;9.90;1.00;;;;;;5068310;28;20377;-54
2022/05/03 03:42:05;;;;;;;30.58;21.73;;;9.90;1.00;;;;;;5066637;28;20396;-53
2022/05/03 03:44:32;;;;;;;29.57;20.97;;;9.80;3.80;;;;;;5062410;28;20392;-54
2022/05/03 03:46:59;;;;;;;32.92;21.80;;;9.80;11.10;;;;;;5069332;28;20403;-52
2022/05/03 03:49:26;;;;;;;31.65;21.80;;;9.80;8.90;;;;;;5071608;28;20384;-53
2022/05/03 03:51:52;;;;;;;34.35;23.40;;;9.70;13.50;;;;;;5067429;28;20875;-51
2022/05/03 03:54:19;;;;;;;31.45;22.10;;;9.80;21.30;;;;;;5070756;28;20380;-52
2022/05/03 03:56:45;;;;;;;31.92;22.50;;;9.90;46.00;;;;;;5072188;28;20419;-51
2022/05/03 03:59:14;;;;;;;29.80;21.15;;;9.80;99.90;;;;;;5071390;28;20384;-51
2022/05/03 04:01:40;;;;;;;32.43;23.50;;;9.80;99.90;;;;;;5070816;28;20434;-53
2022/05/03 04:04:08;;;;;;;33.00;23.55;;;9.70;99.90;;;;;;5055975;28;20421;-53
2022/05/03 04:06:35;;;;;;;30.23;21.88;;;9.60;14.30;;;;;;5065010;28;20411;-54
2022/05/03 04:09:01;;;;;;;33.00;22.23;;;9.50;11.00;;;;;;5072500;28;20380;-54
2022/05/03 04:11:27;;;;;;;33.57;22.50;;;9.40;56.40;;;;;;5071843;28;20403;-54
2022/05/03 04:13:59;;;;;;;32.92;22.80;;;9.50;94.10;;;;;;5069945;28;20415;-54
2022/05/03 04:16:25;;;;;;;32.28;23.50;;;9.50;99.90;;;;;;5064602;28;20395;-57
2022/05/03 04:18:50;;;;;;;31.73;21.92;;;9.70;99.90;;;;;;5067944;28;20389;-55
2022/05/03 04:21:18;;;;;;;32.07;22.60;;;9.70;99.90;;;;;;5063925;28;20426;-54
2022/05/03 04:23:45;;;;;;;31.17;20.60;;;9.80;99.90;;;;;;5072590;28;20882;-54
2022/05/03 04:26:12;;;;;;;31.75;21.33;;;9.90;99.90;;;;;;5060300;28;20419;-53
2022/05/03 04:28:41;;;;;;;32.35;21.55;;;9.90;99.90;;;;;;5052930;28;20390;-54
2022/05/03 04:31:07;;;;;;;34.08;23.20;;;9.70;99.90;;;;;;5062278;28;20400;-54
2022/05/03 04:33:33;;;;;;;33.03;22.90;;;9.60;99.90;;;;;;5067542;28;20404;-55
2022/05/03 04:35:59;;;;;;;31.45;22.02;;;9.70;99.90;;;;;;5052291;28;20738;-55
2022/05/03 04:38:25;;;;;;;28.80;21.33;;;9.80;99.90;;;;;;5054543;28;20396;-55
2022/05/03 04:41:01;;;;;;;32.30;21.65;;;9.90;99.90;;;;;;5052453;28;20895;-56
2022/05/03 04:43:27;;;;;;;31.75;21.52;;;10.10;99.90;;;;;;5069648;28;20418;-55
2022/05/03 04:45:53;;;;;;;33.33;22.65;;;10.20;99.90;;;;;;5061131;28;20412;-55
2022/05/03 04:48:19;;;;;;;33.75;21.60;;;10.20;99.90;;;;;;5051968;28;20385;-53
2022/05/03 04:50:45;;;;;;;31.47;21.73;;;10.30;99.90;;;;;;5052062;28;20396;-53
2022/05/03 04:53:11;;;;;;;26.40;19.17;;;10.60;99.90;;;;;;5057932;28;20543;-54
2022/05/03 04:55:41;;;;;;;23.38;17.67;;;11.20;99.90;;;;;;5061026;28;20482;-53
2022/05/03 04:58:07;;;;;;;23.30;16.67;;;11.80;99.90;;;;;;5053556;28;20425;-54
2022/05/03 05:00:33;;;;;;;23.92;16.80;;;12.40;99.90;;;;;;5051835;28;20408;-54
2022/05/03 05:02:59;;;;;;;23.75;16.33;;;13.00;99.90;;;;;;5051803;28;20388;-53
2022/05/03 05:05:25;;;;;;;21.70;16.23;;;13.50;99.90;;;;;;5054752;28;20932;-53
2022/05/03 05:07:51;;;;;;;23.38;15.00;;;14.40;99.90;;;;;;5050956;28;20393;-53
2022/05/03 05:10:37;;;;;;;20.13;15.07;;;15.40;99.90;;;;;;5056746;28;20396;-53
2022/05/03 05:13:02;;;;;;;20.00;15.20;;;16.50;99.90;;;;;;5071059;28;20460;-54
2022/05/03 05:15:30;;;;;;;19.53;14.70;;;17.60;99.90;;;;;;5063279;28;20884;-53
2022/05/03 05:17:57;;;;;;;20.35;14.93;;;18.30;99.90;;;;;;5069075;28;20481;-53
2022/05/03 05:20:24;;;;;;;21.05;15.48;;;19.00;99.90;;;;;;5069352;28;20399;-53
2022/05/03 05:22:51;;;;;;;19.35;15.60;;;19.40;99.90;;;;;;5070595;28;20423;-53
2022/05/03 05:25:17;;;;;;;19.05;15.80;;;19.80;99.90;;;;;;5036279;28;20400;-53
2022/05/03 05:27:43;;;;;;;18.75;15.48;;;20.30;99.90;;;;;;5050713;28;20381;-54
2022/05/03 05:30:09;;;;;;;20.10;16.20;;;20.50;99.90;;;;;;5057335;28;20386;-52
2022/05/03 05:32:35;;;;;;;18.00;14.90;;;21.00;99.90;;;;;;5070471;28;20379;-54
2022/05/03 05:35:05;;;;;;;19.65;16.50;;;21.20;99.90;;;;;;5069552;28;20407;-53
2022/05/03 05:37:32;;;;;;;18.38;16.15;;;21.40;99.90;;;;;;5049870;28;20616;-54
2022/05/03 05:39:57;;;;;;;20.65;17.70;;;21.80;99.90;;;;;;5052081;28;20377;-54
2022/05/03 05:42:23;;;;;;;22.23;18.80;;;22.30;99.90;;;;;;5049999;28;20392;-54
2022/05/03 05:44:49;;;;;;;20.02;17.92;;;22.60;99.90;;;;;;5055220;28;20387;-54
2022/05/03 05:47:14;;;;;;;21.00;18.80;;;22.60;99.90;;;;;;5071389;28;20469;-53
2022/05/03 05:49:40;;;;;;;21.55;19.23;;;22.50;99.90;;;;;;5070508;28;20403;-54
2022/05/03 05:54:51;;;;;;;22.42;20.02;;;23.00;99.90;;;;;;5051098;28;20407;-54
2022/05/03 05:57:16;;;;;;;23.37;19.47;;;22.30;99.90;;;;;;5031645;28;20381;-54
2022/05/03 05:59:42;;;;;;;24.20;20.70;;;22.10;99.90;;;;;;5052810;28;20385;-54
2022/05/03 06:02:08;;;;;;;23.23;17.90;;;21.90;99.90;;;;;;5068172;28;20446;-54
2022/05/03 06:04:34;;;;;;;21.80;19.45;;;22.40;99.90;;;;;;5062802;28;20414;-53
2022/05/03 06:06:59;;;;;;;21.50;17.55;;;23.00;99.90;;;;;;5056903;28;20432;-55
2022/05/03 06:09:25;;;;;;;23.38;20.98;;;23.20;99.90;;;;;;5064113;28;20440;-54
2022/05/03 06:11:51;;;;;;;25.27;22.20;;;23.80;99.90;;;;;;5049581;28;20854;-54
2022/05/03 06:14:17;;;;;;;26.00;20.50;;;24.30;99.90;;;;;;5049959;28;20408;-54
2022/05/03 06:16:53;;;;;;;21.88;18.10;;;24.50;99.90;;;;;;5051161;28;20391;-54
2022/05/03 06:19:19;;;;;;;23.02;17.75;;;24.70;99.90;;;;;;5049439;28;20413;-54
2022/05/03 06:21:46;;;;;;;23.65;18.48;;;24.50;99.90;;;;;;5053306;28;20391;-54
2022/05/03 06:24:12;;;;;;;21.63;18.75;;;23.90;99.90;;;;;;5049774;28;20490;-53
2022/05/03 06:26:38;;;;;;;24.90;22.50;;;24.20;99.90;;;;;;5069399;28;20411;-55
2022/05/03 06:29:06;;;;;;;22.95;20.52;;;25.00;99.90;;;;;;5069881;28;20392;-54
2022/05/03 06:31:33;;;;;;;22.23;19.83;;;24.80;99.90;;;;;;5068577;28;20376;-54
2022/05/03 06:34:00;;;;;;;24.60;21.02;;;24.70;99.90;;;;;;5069786;28;20824;-54
2022/05/03 06:36:26;;;;;;;23.90;20.33;;;24.40;99.90;;;;;;5068251;28;20788;-54
2022/05/03 06:38:51;;;;;;;27.35;21.58;;;24.20;99.90;;;;;;5069687;28;20907;-55
2022/05/03 06:41:17;;;;;;;22.75;20.35;;;23.70;99.90;;;;;;5069128;28;20426;-54
2022/05/03 06:43:43;;;;;;;22.80;20.40;;;24.00;99.90;;;;;;5069686;28;20390;-55
2022/05/03 06:46:10;;;;;;;22.47;19.77;;;24.80;99.90;;;;;;5069783;28;20403;-55
2022/05/03 06:48:35;;;;;;;22.80;20.30;;;25.00;99.90;;;;;;5069192;28;20387;-55
2022/05/03 06:51:01;;;;;;;22.80;20.10;;;25.10;99.90;;;;;;5069259;28;20404;-55
2022/05/03 06:53:27;;;;;;;23.92;21.42;;;25.10;99.90;;;;;;5068733;28;20881;-54
2022/05/03 06:55:53;;;;;;;22.85;18.98;;;26.10;99.90;;;;;;5069873;28;20473;-55
2022/05/03 06:58:18;;;;;;;17.98;15.00;;;26.40;99.90;;;;;;5068881;28;20387;-55
2022/05/03 07:00:44;;;;;;;20.27;15.77;;;27.20;99.90;;;;;;5069272;28;20400;-55
2022/05/03 07:03:12;;;;;;;16.80;14.20;;;28.00;99.90;;;;;;5070689;28;20382;-55
2022/05/03 07:05:39;;;;;;;18.70;15.25;;;27.80;99.90;;;;;;5069578;28;20407;-55
2022/05/03 07:08:08;;;;;;;21.83;19.45;;;28.10;99.90;;;;;;5069884;28;20386;-55
2022/05/03 07:10:34;;;;;;;16.90;14.85;;;27.00;99.90;;;;;;5068964;28;20413;-55
2022/05/03 07:12:59;;;;;;;20.97;14.03;;;26.50;99.90;;;;;;5069182;28;20393;-55
2022/05/03 07:15:26;;;;;;;19.00;15.00;;;27.20;99.90;;;;;;5068493;28;20487;-55
2022/05/03 07:23:21;;;;;;;14.32;12.25;;;28.50;99.90;;;;;;5072261;28;20421;-54
2022/05/03 07:25:47;;;;;;;14.32;11.55;;;28.50;99.90;;;;;;5061905;28;20413;-55
2022/05/03 07:28:13;;;;;;;14.87;12.47;;;28.90;99.90;;;;;;5053083;28;20381;-53
2022/05/03 07:30:38;;;;;;;16.40;11.53;;;28.80;99.90;;;;;;5065633;28;20391;-55
2022/05/03 07:33:04;;;;;;;14.55;11.20;;;28.90;99.90;;;;;;5071780;28;20441;-55
2022/05/03 07:35:30;;;;;;;17.10;12.07;;;29.20;99.90;;;;;;5072295;28;20902;-55
2022/05/03 07:37:57;;;;;;;15.10;13.50;;;29.60;99.90;;;;;;5068791;28;20415;-55
2022/05/03 07:40:23;;;;;;;16.57;13.80;;;30.20;99.90;;;;;;5052526;28;20377;-55
2022/05/03 07:42:49;;;;;;;16.93;11.30;;;30.70;99.90;;;;;;5037988;28;20449;-55
2022/05/03 07:45:15;;;;;;;12.70;9.40;;;29.80;99.90;;;;;;5072590;28;20390;-53
2022/05/03 07:47:41;;;;;;;13.70;10.23;;;29.90;99.90;;;;;;5070984;28;20398;-55
2022/05/03 07:50:07;;;;;;;14.98;12.52;;;30.70;99.90;;;;;;5037390;28;20766;-55
2022/05/03 07:52:35;;;;;;;14.10;10.87;;;30.30;99.90;;;;;;5049688;28;20405;-55
2022/05/03 07:55:02;;;;;;;15.80;12.40;;;29.20;99.90;;;;;;5054908;28;20379;-55
2022/05/03 07:57:28;;;;;;;14.40;10.65;;;28.70;99.90;;;;;;5054129;28;20744;-55
2022/05/03 07:59:54;;;;;;;14.02;12.63;;;28.70;99.90;;;;;;5072785;28;20387;-55
2022/05/03 08:02:24;;;;;;;16.88;14.98;;;28.00;99.90;;;;;;5071976;28;20376;-54
2022/05/03 08:04:51;;;;;;;16.63;14.95;;;27.40;99.90;;;;;;5072852;28;20379;-55
2022/05/03 08:07:18;;;;;;;13.80;12.30;;;27.30;99.90;;;;;;5071695;28;20501;-53
2022/05/03 08:09:45;;;;;;;13.60;12.10;;;27.20;99.90;;;;;;5072911;28;20391;-55
2022/05/03 08:12:11;;;;;;;14.88;13.38;;;27.30;99.90;;;;;;5072810;28;20392;-55
2022/05/03 08:14:37;;;;;;;14.90;12.73;;;27.60;99.90;;;;;;5057420;28;20385;-54
2022/05/03 08:17:04;;;;;;;15.47;13.87;;;27.60;99.90;;;;;;5064972;28;20400;-54
2022/05/03 08:19:29;;;;;;;14.68;13.18;;;27.00;99.90;;;;;;5054434;28;20396;-54
2022/05/03 08:21:56;;;;;;;15.90;13.80;;;26.60;99.90;;;;;;5059328;28;20861;-55
2022/05/03 08:24:23;;;;;;;16.83;13.88;;;27.60;99.90;;;;;;5081188;28;20861;-55
2022/05/03 08:26:49;;;;;;;15.55;14.00;;;28.10;99.90;;;;;;5074084;28;20410;-56
2022/05/03 08:29:15;;;;;;;12.50;9.25;;;29.10;99.90;;;;;;5092158;28;20388;-53
2022/05/03 08:31:41;;;;;;;11.77;8.82;;;29.80;99.90;;;;;;5091518;28;20374;-55
2022/05/03 08:34:07;;;;;;;12.23;9.00;;;30.70;99.90;;;;;;5091539;28;20462;-55
2022/05/03 08:36:33;;;;;;;12.25;8.90;;;30.20;99.90;;;;;;5091543;28;20420;-54
2022/05/03 08:42:06;;;;;;;14.90;13.40;;;28.80;99.90;;;;;;5092488;28;20934;-55
2022/05/03 08:44:33;;;;;;;14.15;12.70;;;28.50;99.90;;;;;;5092176;28;20382;-55
2022/05/03 08:47:00;;;;;;;16.25;14.75;;;27.40;99.90;;;;;;5092481;28;20441;-55
2022/05/03 08:49:42;;;;;;;18.38;14.05;;;26.30;99.90;;;;;;5091194;28;20403;-55
2022/05/03 08:52:09;;;;;;;14.00;12.60;;;26.00;99.90;;;;;;5092412;28;20378;-54
2022/05/03 08:54:39;;;;;;;14.07;12.33;;;26.40;99.90;;;;;;5091726;28;20405;-55
2022/05/03 08:57:06;;;;;;;14.27;12.87;;;26.50;99.90;;;;;;5092089;28;20390;-55
2022/05/03 08:59:34;;;;;;;13.80;12.50;;;26.60;99.90;;;;;;5091560;28;20454;-55
2022/05/03 09:02:00;;;;;;;13.38;11.98;;;27.60;99.90;;;;;;5092208;28;20382;-55
2022/05/03 09:04:26;;;;;;;13.00;10.75;;;28.70;99.90;;;;;;5091011;28;20377;-55
2022/05/03 09:06:52;;;;;;;13.40;12.00;;;29.00;99.90;;;;;;5092041;28;20402;-55
2022/05/03 09:09:20;;;;;;;12.85;11.55;;;29.70;99.90;;;;;;5091519;28;20386;-53
2022/05/03 09:11:51;;;;;;;12.70;11.10;;;29.80;99.90;;;;;;5092287;28;20379;-55
2022/05/03 09:14:42;;;;;;;11.70;10.50;;;29.10;99.90;;;;;;5080309;28;20430;-54
2022/05/03 09:17:07;;;;;;;12.40;11.13;;;29.00;99.90;;;;;;5071433;28;20469;-55
2022/05/03 09:19:33;;;;;;;11.77;9.93;;;30.00;99.90;;;;;;5070278;28;20375;-54
2022/05/03 09:24:52;;;;;;;11.70;7.43;;;29.70;99.90;;;;;;5071617;28;20892;-55
2022/05/03 09:27:18;;;;;;;9.70;5.22;;;30.10;99.90;;;;;;5070664;28;20499;-53
2022/05/03 09:30:16;;;;;;;8.10;4.70;;;30.70;99.90;;;;;;5075949;28;20793;-55
2022/05/03 09:32:44;;;;;;;8.93;5.60;;;31.20;99.90;;;;;;5035932;28;20433;-55
2022/05/03 09:35:35;;;;;;;8.90;4.60;;;31.80;99.90;;;;;;5091370;28;20385;-55
2022/05/03 09:38:03;;;;;;;7.97;5.05;;;32.00;99.90;;;;;;5091411;28;20930;-55
2022/05/03 09:40:34;;;;;;;8.77;4.07;;;32.70;99.90;;;;;;5090455;28;20545;-56
2022/05/03 09:42:59;;;;;;;7.72;4.10;;;32.70;99.90;;;;;;5091245;28;21064;-55
2022/05/03 09:45:26;;;;;;;7.00;4.30;;;32.40;99.90;;;;;;5071267;28;20473;-55
2022/05/03 09:47:59;;;;;;;8.75;4.80;;;32.30;99.90;;;;;;5091158;28;20524;-55
2022/05/03 09:50:33;;;;;;;8.05;5.53;;;32.90;99.90;;;;;;5090230;28;20421;-55
2022/05/03 09:53:10;;;;;;;7.90;4.70;;;31.90;99.90;;;;;;5090935;28;20852;-56
2022/05/03 09:55:37;;;;;;;9.13;5.28;;;31.80;99.90;;;;;;5090000;28;20427;-55
2022/05/03 09:58:05;;;;;;;15.02;13.07;;;31.20;99.90;;;;;;5090832;28;20443;-55
2022/05/03 10:00:33;;;;;;;9.40;8.50;;;30.70;99.90;;;;;;5090148;28;20851;-54
2022/05/03 10:03:01;;;;;;;9.38;8.48;;;30.00;99.90;;;;;;5073779;28;20438;-55
2022/05/03 10:05:27;;;;;;;10.90;9.80;;;31.30;99.90;;;;;;5089498;28;20741;-55
2022/05/03 10:07:54;;;;;;;10.23;7.15;;;31.50;99.90;;;;;;5090947;28;20391;-55
2022/05/03 10:10:21;;;;;;;8.50;5.53;;;31.20;99.90;;;;;;5089630;28;20457;-55
2022/05/03 10:12:49;;;;;;;9.18;5.70;;;31.20;99.90;;;;;;5090287;28;20377;-56
2022/05/03 10:21:00;;;;;;;9.80;8.70;;;30.20;99.90;;;;;;5090648;28;20736;-55
2022/05/03 10:23:28;;;;;;;10.25;7.55;;;30.80;99.90;;;;;;5089529;28;20406;-55
2022/05/03 10:25:57;;;;;;;8.75;4.90;;;31.40;99.90;;;;;;5090054;28;20406;-55
2022/05/03 10:28:24;;;;;;;7.40;4.60;;;31.00;99.90;;;;;;5086288;28;20431;-55
2022/05/03 10:31:07;;;;;;;10.80;7.05;;;30.80;99.90;;;;;;5069116;28;20899;-55
2022/05/03 10:33:35;;;;;;;11.82;10.73;;;29.60;99.90;;;;;;5082709;28;20451;-55
2022/05/03 10:36:21;;;;;;;11.05;9.93;;;28.70;99.90;;;;;;5089846;28;20794;-54
2022/05/03 10:38:48;;;;;;;12.02;10.93;;;27.60;99.90;;;;;;5090150;28;20402;-55
2022/05/03 10:41:23;;;;;;;11.50;10.40;;;27.40;99.90;;;;;;5090180;28;20770;-55
2022/05/03 10:43:49;;;;;;;11.73;10.63;;;27.20;99.90;;;;;;5090156;28;20423;-54
2022/05/03 10:46:20;;;;;;;12.15;10.93;;;26.90;99.90;;;;;;5088944;28;20402;-55
2022/05/03 10:49:10;;;;;;;12.40;11.30;;;27.00;99.90;;;;;;5089969;28;20381;-54
2022/05/03 10:51:37;;;;;;;12.30;10.68;;;26.80;99.90;;;;;;5089188;28;20598;-55
2022/05/03 10:54:04;;;;;;;13.95;11.80;;;26.70;99.90;;;;;;5089854;28;20432;-55
2022/05/03 10:56:30;;;;;;;12.82;11.63;;;26.40;99.90;;;;;;5070378;28;20735;-54
2022/05/03 10:59:16;;;;;;;11.82;10.63;;;26.20;99.90;;;;;;5087623;28;20402;-54
2022/05/03 11:01:54;;;;;;;12.85;10.30;;;26.00;99.90;;;;;;5086041;28;20390;-54
2022/05/03 11:04:21;;;;;;;12.30;11.00;;;26.30;99.90;;;;;;5084576;28;20389;-53
2022/05/03 11:06:50;;;;;;;11.95;10.75;;;26.50;99.90;;;;;;5087125;28;20410;-55
2022/05/03 11:09:30;;;;;;;12.73;11.30;;;26.40;99.90;;;;;;5087432;28;20393;-54
2022/05/03 11:12:00;;;;;;;11.30;10.10;;;26.40;99.90;;;;;;5086965;28;20432;-55
2022/05/03 11:14:28;;;;;;;11.27;10.00;;;26.70;99.90;;;;;;5083331;28;20966;-54
2022/05/03 11:17:03;;;;;;;11.68;10.43;;;26.60;99.90;;;;;;5088961;28;20382;-54
2022/05/03 11:19:30;;;;;;;13.07;10.43;;;26.30;99.90;;;;;;5088240;28;20382;-54
2022/05/03 11:21:58;;;;;;;12.48;11.07;;;26.10;99.90;;;;;;5071553;28;20413;-54
2022/05/03 11:24:27;;;;;;;11.82;10.60;;;26.10;99.90;;;;;;5068120;28;20803;-56
2022/05/03 11:26:58;;;;;;;12.40;9.80;;;25.90;99.90;;;;;;5066466;28;20442;-55
2022/05/03 11:29:37;;;;;;;12.75;11.55;;;25.90;99.90;;;;;;5067674;28;20678;-53
2022/05/03 11:32:07;;;;;;;12.95;11.65;;;25.80;99.90;;;;;;5046174;28;20456;-53
2022/05/03 11:34:34;;;;;;;14.88;13.40;;;26.20;99.90;;;;;;5059178;28;20394;-54
2022/05/03 11:37:01;;;;;;;14.43;12.93;;;26.30;99.90;;;;;;5066557;28;20407;-54
2022/05/03 11:39:28;;;;;;;13.68;12.27;;;26.70;99.90;;;;;;5068149;28;20387;-54
2022/05/03 11:41:54;;;;;;;16.10;13.10;;;27.30;99.90;;;;;;5069152;28;20891;-54
2022/05/03 11:44:20;;;;;;;15.98;12.85;;;27.00;99.90;;;;;;5068481;28;21247;-53
2022/05/03 11:46:48;;;;;;;13.47;12.07;;;26.80;99.90;;;;;;5065576;28;20403;-53
2022/05/03 11:49:16;;;;;;;14.95;13.57;;;26.20;99.90;;;;;;5068881;28;20376;-54
2022/05/03 11:57:27;;;;;;;12.10;10.80;;;26.20;99.90;;;;;;5044194;28;20876;-54
2022/05/03 11:59:58;;;;;;;14.70;13.20;;;26.50;99.90;;;;;;5068789;28;20482;-54
2022/05/03 12:02:38;;;;;;;13.27;11.97;;;26.60;99.90;;;;;;5065581;28;20391;-53
2022/05/03 12:05:15;;;;;;;13.13;11.80;;;26.00;99.90;;;;;;5066424;28;20757;-53
2022/05/03 12:07:47;;;;;;;17.80;12.80;;;25.20;99.90;;;;;;5056492;28;21047;-54
2022/05/03 12:10:16;;;;;;;14.98;13.57;;;25.00;99.90;;;;;;5072644;28;20391;-56
2022/05/03 12:12:45;;;;;;;13.98;12.57;;;24.50;99.90;;;;;;5063480;28;20483;-55
2022/05/03 12:15:21;;;;;;;13.60;12.20;;;24.40;99.90;;;;;;5068268;28;20478;-55
2022/05/03 12:17:54;;;;;;;13.13;11.82;;;24.70;99.90;;;;;;5059630;28;20824;-56
2022/05/03 12:20:21;;;;;;;15.63;11.30;;;25.10;99.90;;;;;;5072023;28;20391;-54
2022/05/03 12:23:10;;;;;;;11.40;10.18;;;24.90;99.90;;;;;;5068411;28;20478;-56
2022/05/03 12:25:37;;;;;;;12.80;11.50;;;24.60;99.90;;;;;;5061334;28;20384;-56
2022/05/03 12:28:06;;;;;;;11.25;10.13;;;24.40;99.90;;;;;;5052973;28;20485;-55
2022/05/03 12:30:32;;;;;;;11.63;10.43;;;24.10;99.90;;;;;;5055125;28;20402;-55
2022/05/03 12:33:06;;;;;;;12.48;10.10;;;24.10;99.90;;;;;;5065845;28;20387;-56
2022/05/03 12:35:34;;;;;;;14.80;11.10;;;23.90;99.90;;;;;;5064244;28;21148;-57
2022/05/03 12:38:14;;;;;;;12.55;11.35;;;23.80;99.90;;;;;;5063907;28;20745;-55
2022/05/03 12:41:06;;;;;;;11.40;9.63;;;23.80;99.90;;;;;;5071227;28;20542;-53
2022/05/03 12:43:32;;;;;;;13.40;10.50;;;23.70;99.90;;;;;;5066307;28;20400;-53
2022/05/03 12:46:06;;;;;;;14.50;12.88;;;23.90;99.90;;;;;;5072219;28;20407;-54
2022/05/03 12:48:34;;;;;;;12.20;10.85;;;24.40;99.90;;;;;;5051249;28;20506;-53
2022/05/03 12:51:01;;;;;;;12.27;11.00;;;24.60;99.90;;;;;;5071802;28;20394;-53
2022/05/03 12:53:32;;;;;;;12.67;10.90;;;24.50;99.90;;;;;;5068308;28;20488;-53
2022/05/03 12:58:43;;;;;;;12.55;11.25;;;24.80;99.90;;;;;;5070264;28;20398;-53
2022/05/03 13:01:11;;;;;;;11.70;10.50;;;24.70;99.90;;;;;;5071087;28;20412;-53
2022/05/03 13:03:37;;;;;;;10.30;9.17;;;24.50;99.90;;;;;;5070643;28;20383;-53
2022/05/03 13:06:03;;;;;;;11.00;9.90;;;24.60;99.90;;;;;;5071475;28;20421;-54
2022/05/03 13:08:29;;;;;;;9.87;8.93;;;24.60;99.90;;;;;;5070538;28;20804;-54
2022/05/03 13:10:55;;;;;;;10.68;9.02;;;24.50;99.90;;;;;;5070533;28;20407;-53
2022/05/03 13:13:21;;;;;;;9.02;8.13;;;24.10;99.90;;;;;;5067987;28;20461;-53
2022/05/03 13:15:47;;;;;;;9.93;8.75;;;23.80;99.90;;;;;;5033193;28;20405;-53
2022/05/03 13:18:13;;;;;;;10.80;9.70;;;23.60;99.90;;;;;;5051502;28;20380;-53
2022/05/03 13:20:39;;;;;;;10.10;9.20;;;23.60;99.90;;;;;;5050413;28;21029;-53
2022/05/03 13:23:05;;;;;;;14.00;10.50;;;23.50;99.90;;;;;;5051251;28;20401;-53
2022/05/03 13:25:31;;;;;;;16.75;10.65;;;22.70;99.90;;;;;;5050587;28;20384;-53
2022/05/03 13:27:57;;;;;;;15.70;10.48;;;21.80;99.90;;;;;;5051217;28;20381;-53